Time;durP1;ratioP1;P1;durP2;ratioP2;P2;SDS_P1;SDS_P2;PMS_P1;PMS_P2;Temp;Humidity;BMP_temperature;BMP_pressure;BME280_temperature;BME280_humidity;BME280_pressure;Samples;Min_cycle;Max_cycle;Signal;HPM_P1;HPM_P2
2021/09/11 00:00:15;;;;;;;15.77;13.52;;;18.90;99.90;;;;;;5002172;28;20132;-67
2021/09/11 00:02:43;;;;;;;18.50;13.13;;;18.90;99.90;;;;;;4998458;28;20099;-67
2021/09/11 00:05:09;;;;;;;14.52;12.95;;;18.80;99.90;;;;;;4998464;28;20708;-67
2021/09/11 00:07:35;;;;;;;15.60;12.80;;;18.80;99.90;;;;;;5000545;28;20157;-67
2021/09/11 00:10:01;;;;;;;16.13;12.95;;;18.80;99.90;;;;;;5000009;28;20034;-67
2021/09/11 00:12:26;;;;;;;14.05;12.55;;;18.80;99.90;;;;;;5001475;28;20042;-67
2021/09/11 00:14:52;;;;;;;13.35;12.05;;;18.80;99.90;;;;;;5001937;28;20065;-67
2021/09/11 00:17:18;;;;;;;13.52;12.13;;;18.80;99.90;;;;;;5002371;28;20049;-67
2021/09/11 00:19:43;;;;;;;15.32;12.85;;;18.80;99.90;;;;;;5000022;28;20033;-67
2021/09/11 00:22:09;;;;;;;15.63;14.00;;;18.80;99.90;;;;;;4998208;28;20164;-67
2021/09/11 00:24:35;;;;;;;16.00;14.50;;;18.80;99.90;;;;;;4998031;28;20077;-67
2021/09/11 00:27:01;;;;;;;16.55;14.82;;;18.80;99.90;;;;;;5000589;28;20496;-67
2021/09/11 00:29:26;;;;;;;22.55;17.48;;;18.80;99.90;;;;;;5001765;28;20107;-67
2021/09/11 00:31:52;;;;;;;20.83;18.33;;;18.80;99.90;;;;;;5002794;28;20033;-67
2021/09/11 00:34:18;;;;;;;20.48;18.15;;;18.80;99.90;;;;;;4999921;28;20045;-67
2021/09/11 00:36:44;;;;;;;23.75;20.27;;;18.80;99.90;;;;;;4997752;28;20457;-67
2021/09/11 00:39:09;;;;;;;22.15;19.95;;;18.80;99.90;;;;;;5001469;28;20104;-67
2021/09/11 00:41:35;;;;;;;29.77;24.50;;;18.70;99.90;;;;;;4998522;28;20053;-67
2021/09/11 00:44:01;;;;;;;31.90;25.15;;;18.80;99.90;;;;;;5001036;28;20042;-67
2021/09/11 00:46:27;;;;;;;33.92;25.15;;;18.80;99.90;;;;;;4997993;28;20543;-67
2021/09/11 00:48:53;;;;;;;35.00;27.33;;;18.80;99.90;;;;;;4998549;28;20033;-67
2021/09/11 00:51:19;;;;;;;34.47;26.88;;;18.80;99.90;;;;;;4999881;28;20029;-67
2021/09/11 00:53:45;;;;;;;36.33;27.15;;;18.80;99.90;;;;;;5000369;28;20651;-67
2021/09/11 00:56:12;;;;;;;43.70;34.88;;;18.80;99.90;;;;;;4998534;28;20036;-67
2021/09/11 00:58:39;;;;;;;42.83;34.17;;;18.80;99.90;;;;;;4999774;28;20096;-67
2021/09/11 01:01:06;;;;;;;46.00;33.70;;;18.80;99.90;;;;;;5012791;28;20144;-67
2021/09/11 01:03:32;;;;;;;49.08;35.88;;;18.80;99.90;;;;;;5000554;28;20056;-67
2021/09/11 01:05:58;;;;;;;55.90;37.15;;;18.80;99.90;;;;;;4999697;28;20046;-67
2021/09/11 01:08:25;;;;;;;47.33;34.60;;;18.80;99.90;;;;;;4999914;28;20683;-67
2021/09/11 01:10:51;;;;;;;39.53;31.88;;;18.80;99.90;;;;;;5002667;28;20042;-67
2021/09/11 01:13:17;;;;;;;48.80;34.47;;;18.80;99.90;;;;;;5001449;28;20108;-67
2021/09/11 01:15:43;;;;;;;55.67;37.50;;;18.80;99.90;;;;;;5001284;28;20061;-67
2021/09/11 01:18:09;;;;;;;54.40;38.35;;;18.80;99.90;;;;;;4998945;28;20050;-67
2021/09/11 01:20:36;;;;;;;58.17;39.42;;;18.80;99.90;;;;;;5001145;28;20045;-67
2021/09/11 01:23:02;;;;;;;53.85;38.53;;;18.80;99.90;;;;;;4996364;28;20141;-67
2021/09/11 01:25:28;;;;;;;58.17;41.63;;;18.80;99.90;;;;;;4998631;28;21059;-68
2021/09/11 01:27:54;;;;;;;54.60;40.42;;;18.80;99.90;;;;;;4997070;28;20037;-68
2021/09/11 01:30:22;;;;;;;50.83;38.80;;;18.80;99.90;;;;;;4997786;28;20491;-68
2021/09/11 01:32:49;;;;;;;49.20;39.75;;;18.80;99.90;;;;;;4997330;28;20521;-67
2021/09/11 01:35:15;;;;;;;49.83;39.25;;;18.70;99.90;;;;;;4996407;28;20049;-67
2021/09/11 01:37:41;;;;;;;49.97;38.75;;;18.80;99.90;;;;;;4998295;28;20050;-67
2021/09/11 01:40:07;;;;;;;55.03;39.90;;;18.80;99.90;;;;;;4997240;28;20042;-67
2021/09/11 01:42:33;;;;;;;48.65;38.42;;;18.80;99.90;;;;;;4998577;28;20774;-67
2021/09/11 01:45:05;;;;;;;56.17;40.63;;;18.80;99.90;;;;;;4999151;28;20076;-67
2021/09/11 01:47:30;;;;;;;54.05;40.63;;;18.80;99.90;;;;;;4998511;28;20042;-67
2021/09/11 01:49:56;;;;;;;59.35;42.67;;;18.80;99.90;;;;;;4998124;28;20050;-67
2021/09/11 01:52:22;;;;;;;62.28;42.35;;;18.70;99.90;;;;;;4996490;28;20054;-67
2021/09/11 01:54:49;;;;;;;60.00;42.22;;;18.70;99.90;;;;;;4997327;28;20060;-67
2021/09/11 01:57:15;;;;;;;58.72;42.95;;;18.60;99.90;;;;;;4999336;28;20046;-67
2021/09/11 01:59:41;;;;;;;54.83;41.53;;;18.60;99.90;;;;;;4995738;28;20061;-67
2021/09/11 02:02:08;;;;;;;65.18;44.42;;;18.60;99.90;;;;;;4998322;28;20115;-67
2021/09/11 02:04:34;;;;;;;63.72;44.63;;;18.60;99.90;;;;;;4997625;28;20129;-67
2021/09/11 02:07:03;;;;;;;54.13;41.67;;;18.50;99.90;;;;;;4999690;28;20447;-67
2021/09/11 02:09:30;;;;;;;63.97;44.20;;;18.60;99.90;;;;;;4997624;28;20046;-67
2021/09/11 02:11:56;;;;;;;63.90;43.40;;;18.50;99.90;;;;;;4999616;28;20040;-68
2021/09/11 02:14:21;;;;;;;59.65;43.80;;;18.50;99.90;;;;;;4999339;28;20038;-68
2021/09/11 02:16:47;;;;;;;52.53;41.03;;;18.50;99.90;;;;;;4998857;28;20053;-68
2021/09/11 02:19:13;;;;;;;73.25;46.67;;;18.40;99.90;;;;;;4995033;28;20048;-68
2021/09/11 02:21:39;;;;;;;64.05;44.80;;;18.40;99.90;;;;;;5001095;28;20041;-68
2021/09/11 02:24:05;;;;;;;71.05;46.88;;;18.40;99.90;;;;;;4996838;28;20161;-68
2021/09/11 02:26:31;;;;;;;63.10;45.50;;;18.40;99.90;;;;;;4996370;28;20069;-68
2021/09/11 02:28:57;;;;;;;61.20;42.42;;;18.30;99.90;;;;;;4996669;28;20080;-68
2021/09/11 02:31:22;;;;;;;76.47;45.40;;;18.40;99.90;;;;;;5001836;28;20564;-68
2021/09/11 02:33:48;;;;;;;60.10;42.22;;;18.30;99.90;;;;;;5004490;28;20045;-68
2021/09/11 02:36:14;;;;;;;63.63;44.13;;;18.30;99.90;;;;;;5002339;28;20052;-68
2021/09/11 02:38:40;;;;;;;58.22;42.45;;;18.40;99.90;;;;;;5001572;28;20042;-67
2021/09/11 02:41:06;;;;;;;58.47;42.58;;;18.30;99.90;;;;;;5007930;28;20041;-67
2021/09/11 02:43:31;;;;;;;52.50;39.50;;;18.30;99.90;;;;;;5008497;28;20038;-68
2021/09/11 02:45:57;;;;;;;57.10;40.90;;;18.30;99.90;;;;;;5008535;28;20065;-67
2021/09/11 02:48:23;;;;;;;47.55;36.90;;;18.30;99.90;;;;;;5006436;28;20042;-67
2021/09/11 02:50:49;;;;;;;54.22;37.95;;;18.30;99.90;;;;;;5005722;28;20038;-67
2021/09/11 02:53:14;;;;;;;51.28;38.58;;;18.30;99.90;;;;;;5004687;28;20132;-68
2021/09/11 02:55:40;;;;;;;46.58;37.75;;;18.30;99.90;;;;;;5008677;28;20451;-67
2021/09/11 02:58:06;;;;;;;49.88;36.13;;;18.30;99.90;;;;;;5008395;28;20073;-67
2021/09/11 03:00:31;;;;;;;48.10;34.20;;;18.20;99.90;;;;;;5008514;28;20117;-68
2021/09/11 03:02:57;;;;;;;43.72;33.17;;;18.20;99.90;;;;;;5005934;28;20081;-68
2021/09/11 03:05:23;;;;;;;42.97;32.53;;;18.20;99.90;;;;;;5007008;28;20046;-67
2021/09/11 03:07:48;;;;;;;41.40;31.88;;;18.20;99.90;;;;;;5006425;28;20494;-68
2021/09/11 03:10:14;;;;;;;42.42;32.33;;;18.20;99.90;;;;;;5010315;28;20034;-68
2021/09/11 03:12:39;;;;;;;40.90;31.88;;;18.10;99.90;;;;;;5007903;28;20065;-68
2021/09/11 03:15:06;;;;;;;48.25;32.65;;;18.20;99.90;;;;;;5006009;28;20112;-68
2021/09/11 03:17:31;;;;;;;45.75;31.42;;;18.10;99.90;;;;;;5008519;28;20057;-68
2021/09/11 03:19:57;;;;;;;36.53;28.25;;;18.10;99.90;;;;;;5006013;28;20509;-68
2021/09/11 03:22:23;;;;;;;37.28;29.30;;;18.10;99.90;;;;;;5006354;28;20030;-68
2021/09/11 03:24:48;;;;;;;45.92;30.17;;;18.10;99.90;;;;;;5007790;28;20066;-68
2021/09/11 03:27:14;;;;;;;31.90;25.98;;;18.00;99.90;;;;;;5007357;28;20054;-68
2021/09/11 03:29:40;;;;;;;27.88;23.92;;;18.00;99.90;;;;;;5006749;28;20073;-67
2021/09/11 03:34:40;;;;;;;26.17;19.15;;;18.00;99.90;;;;;;5033141;22;20050;-66
2021/09/11 03:37:07;;;;;;;24.30;18.05;;;17.90;99.90;;;;;;5007224;28;20037;-66
2021/09/11 03:39:33;;;;;;;20.85;15.35;;;17.90;99.90;;;;;;5004024;28;20137;-66
2021/09/11 03:41:58;;;;;;;16.90;13.35;;;17.80;99.90;;;;;;5008709;28;20121;-66
2021/09/11 03:44:24;;;;;;;21.25;15.60;;;17.80;99.90;;;;;;5009448;28;20045;-66
2021/09/11 03:46:49;;;;;;;22.73;14.70;;;17.70;99.90;;;;;;5006841;28;20057;-66
2021/09/11 03:49:15;;;;;;;16.90;12.57;;;17.70;99.90;;;;;;5006304;28;20372;-66
2021/09/11 03:51:41;;;;;;;16.23;11.32;;;17.60;99.90;;;;;;5006487;28;21630;-66
2021/09/11 03:54:06;;;;;;;19.80;11.75;;;17.60;99.90;;;;;;5005652;28;20499;-66
2021/09/11 03:56:32;;;;;;;16.73;10.75;;;17.50;99.90;;;;;;5006942;28;20033;-66
2021/09/11 03:58:57;;;;;;;14.73;10.40;;;17.50;99.90;;;;;;5007117;28;20038;-66
2021/09/11 04:01:23;;;;;;;14.20;9.85;;;17.50;99.90;;;;;;5002706;28;20037;-66
2021/09/11 04:03:48;;;;;;;16.83;9.48;;;17.40;99.90;;;;;;5007081;28;20416;-66
2021/09/11 04:06:14;;;;;;;12.18;9.38;;;17.30;99.90;;;;;;5006303;28;20038;-66
2021/09/11 04:08:45;;;;;;;18.77;10.05;;;17.30;99.90;;;;;;5008233;28;20042;-66
2021/09/11 04:11:11;;;;;;;15.27;9.88;;;17.30;99.90;;;;;;5006352;28;20116;-66
2021/09/11 04:13:37;;;;;;;16.95;9.88;;;17.20;99.90;;;;;;5005193;28;20125;-66
2021/09/11 04:16:03;;;;;;;16.45;9.93;;;17.20;99.90;;;;;;5004190;28;20050;-66
2021/09/11 04:18:28;;;;;;;18.92;12.02;;;17.10;99.90;;;;;;5003447;28;20120;-66
2021/09/11 04:20:54;;;;;;;15.52;10.57;;;17.10;99.90;;;;;;5004941;28;20041;-66
2021/09/11 04:23:19;;;;;;;14.60;11.35;;;17.10;99.90;;;;;;5004184;28;20069;-66
2021/09/11 04:25:45;;;;;;;14.95;11.52;;;17.00;99.90;;;;;;5005976;28;20504;-66
2021/09/11 04:28:11;;;;;;;19.30;13.02;;;17.00;99.90;;;;;;5003212;28;20040;-66
2021/09/11 04:30:37;;;;;;;19.42;13.98;;;17.00;99.90;;;;;;5003669;28;20046;-66
2021/09/11 04:33:03;;;;;;;27.38;15.63;;;17.00;99.90;;;;;;5005237;28;20186;-66
2021/09/11 04:35:30;;;;;;;22.67;16.75;;;17.00;99.90;;;;;;5006777;28;20164;-66
2021/09/11 04:37:58;;;;;;;29.92;17.58;;;17.10;99.90;;;;;;5004214;28;20136;-66
2021/09/11 04:40:24;;;;;;;26.38;18.27;;;17.10;99.90;;;;;;5004933;28;20471;-66
2021/09/11 04:42:49;;;;;;;23.80;17.58;;;17.00;99.90;;;;;;4986205;28;20158;-66
2021/09/11 04:45:15;;;;;;;29.58;19.85;;;17.00;99.90;;;;;;5003692;28;20407;-66
2021/09/11 04:47:41;;;;;;;27.75;19.80;;;17.00;99.90;;;;;;5005598;28;20064;-66
2021/09/11 04:50:07;;;;;;;25.83;19.08;;;17.00;99.90;;;;;;5004521;28;20080;-66
2021/09/11 04:52:33;;;;;;;28.05;19.88;;;17.00;99.90;;;;;;5002567;28;20092;-66
2021/09/11 04:54:58;;;;;;;26.25;20.15;;;17.00;99.90;;;;;;5005913;28;20029;-66
2021/09/11 04:57:24;;;;;;;28.77;20.73;;;16.90;99.90;;;;;;5006568;28;20411;-66
2021/09/11 04:59:50;;;;;;;31.60;21.60;;;17.00;99.90;;;;;;5006127;28;20042;-66
2021/09/11 05:02:16;;;;;;;29.13;21.35;;;16.90;99.90;;;;;;5003664;28;20125;-66
2021/09/11 05:04:41;;;;;;;32.47;22.20;;;16.90;99.90;;;;;;5003415;28;20508;-66
2021/09/11 05:07:07;;;;;;;32.80;20.60;;;16.90;99.90;;;;;;5006191;28;20045;-66
2021/09/11 05:09:33;;;;;;;31.75;21.85;;;16.80;99.90;;;;;;5003412;28;20037;-66
2021/09/11 05:12:03;;;;;;;34.17;21.63;;;16.80;99.90;;;;;;5006673;28;20038;-66
2021/09/11 05:14:30;;;;;;;32.95;23.15;;;16.80;99.90;;;;;;5004153;28;20042;-67
2021/09/11 05:16:56;;;;;;;34.80;23.20;;;16.80;99.90;;;;;;5000615;28;20046;-66
2021/09/11 05:19:22;;;;;;;34.40;24.92;;;16.80;99.90;;;;;;4997224;28;20048;-66
2021/09/11 05:21:48;;;;;;;35.15;23.63;;;16.80;99.90;;;;;;4999208;28;20038;-66
2021/09/11 05:24:16;;;;;;;36.30;24.27;;;16.70;99.90;;;;;;5000773;28;20436;-66
2021/09/11 05:26:42;;;;;;;39.28;24.95;;;16.70;99.90;;;;;;5019924;28;20081;-66
2021/09/11 05:29:07;;;;;;;34.83;24.60;;;16.70;99.90;;;;;;5005663;28;20038;-66
2021/09/11 05:31:33;;;;;;;33.25;23.73;;;16.70;99.90;;;;;;5000868;28;20045;-66
2021/09/11 05:33:59;;;;;;;39.67;24.27;;;16.80;99.90;;;;;;5001410;28;20030;-66
2021/09/11 05:36:24;;;;;;;27.25;21.65;;;16.80;99.90;;;;;;5000964;28;20157;-66
2021/09/11 05:38:50;;;;;;;32.33;23.25;;;16.80;99.90;;;;;;5004333;28;20051;-66
2021/09/11 05:41:15;;;;;;;31.02;22.25;;;16.80;99.90;;;;;;5003013;28;20116;-66
2021/09/11 05:43:41;;;;;;;35.83;23.33;;;16.80;99.90;;;;;;5004438;28;20053;-66
2021/09/11 05:46:07;;;;;;;38.92;24.75;;;16.90;99.90;;;;;;5002242;28;20053;-66
2021/09/11 05:48:34;;;;;;;31.38;21.88;;;16.90;99.90;;;;;;4998976;28;20045;-66
2021/09/11 05:51:01;;;;;;;32.95;22.25;;;16.90;99.90;;;;;;5002641;28;20050;-68
2021/09/11 05:53:27;;;;;;;31.08;21.88;;;16.90;99.90;;;;;;5006748;28;20041;-66
2021/09/11 05:55:52;;;;;;;28.75;21.77;;;16.90;99.90;;;;;;5000897;28;20052;-66
2021/09/11 05:58:20;;;;;;;29.10;20.15;;;16.90;99.90;;;;;;5000294;28;20045;-66
2021/09/11 06:00:46;;;;;;;34.55;21.85;;;16.90;99.90;;;;;;5000006;28;20046;-66
2021/09/11 06:03:12;;;;;;;30.17;21.05;;;16.90;99.90;;;;;;4996584;28;20044;-66
2021/09/11 06:05:37;;;;;;;27.48;21.00;;;16.90;99.90;;;;;;4998396;28;20041;-66
2021/09/11 06:08:04;;;;;;;25.88;20.23;;;16.90;99.90;;;;;;4997222;28;20133;-66
2021/09/11 06:10:29;;;;;;;29.77;20.92;;;17.00;99.90;;;;;;4998743;28;20500;-66
2021/09/11 06:12:55;;;;;;;33.50;23.20;;;17.00;99.90;;;;;;5005205;28;20057;-66
2021/09/11 06:15:21;;;;;;;28.77;21.02;;;17.10;99.90;;;;;;4999099;28;20541;-66
2021/09/11 06:17:47;;;;;;;29.80;20.88;;;17.10;99.90;;;;;;4999507;28;20050;-66
2021/09/11 06:20:13;;;;;;;28.27;20.40;;;17.10;99.90;;;;;;4998725;28;20104;-66
2021/09/11 06:22:38;;;;;;;33.35;23.90;;;17.10;99.90;;;;;;4999781;28;20041;-66
2021/09/11 06:25:05;;;;;;;32.80;22.40;;;17.10;99.90;;;;;;4998505;28;20112;-66
2021/09/11 06:27:30;;;;;;;27.73;23.10;;;17.10;99.90;;;;;;4999620;28;20056;-66
2021/09/11 06:29:56;;;;;;;31.35;21.45;;;17.10;99.90;;;;;;4998528;28;20384;-65
2021/09/11 06:32:21;;;;;;;28.25;21.77;;;17.10;99.90;;;;;;4995655;28;20045;-66
2021/09/11 06:34:47;;;;;;;32.28;23.85;;;17.10;99.90;;;;;;4998152;28;20042;-66
2021/09/11 06:37:13;;;;;;;31.40;23.00;;;17.20;99.90;;;;;;4998589;28;20511;-68
2021/09/11 06:39:38;;;;;;;37.83;24.67;;;17.20;99.90;;;;;;5000317;28;20048;-68
2021/09/11 06:42:04;;;;;;;30.25;22.45;;;17.20;99.90;;;;;;4996409;28;20042;-69
2021/09/11 06:44:30;;;;;;;32.03;24.05;;;17.20;99.90;;;;;;5001419;28;20038;-69
2021/09/11 06:46:55;;;;;;;31.98;22.83;;;17.20;99.90;;;;;;5000702;28;20041;-69
2021/09/11 06:49:22;;;;;;;32.35;22.80;;;17.30;99.90;;;;;;4999515;28;20034;-69
2021/09/11 06:51:48;;;;;;;28.95;22.20;;;17.40;99.90;;;;;;4997982;28;20503;-69
2021/09/11 06:54:14;;;;;;;36.42;23.75;;;17.40;99.90;;;;;;4997720;28;20035;-69
2021/09/11 06:56:39;;;;;;;30.80;24.73;;;17.40;99.90;;;;;;4999977;28;20104;-69
2021/09/11 06:59:05;;;;;;;30.17;24.85;;;17.50;99.90;;;;;;4999541;28;20046;-69
2021/09/11 07:01:31;;;;;;;44.33;25.60;;;17.40;99.90;;;;;;4999196;28;20088;-69
2021/09/11 07:03:56;;;;;;;29.20;23.98;;;17.50;99.90;;;;;;4997596;28;20091;-69
2021/09/11 07:06:22;;;;;;;34.25;25.98;;;17.50;99.90;;;;;;4996963;28;20050;-69
2021/09/11 07:08:47;;;;;;;31.92;25.70;;;17.50;99.90;;;;;;5000283;28;20395;-69
2021/09/11 07:11:14;;;;;;;35.50;25.17;;;17.60;99.90;;;;;;5000024;28;20042;-69
2021/09/11 07:13:40;;;;;;;37.40;28.00;;;17.60;99.90;;;;;;4998069;28;20180;-69
2021/09/11 07:16:06;;;;;;;36.67;26.83;;;17.60;99.90;;;;;;4997029;28;20649;-69
2021/09/11 07:18:33;;;;;;;32.08;25.23;;;17.60;99.90;;;;;;5001513;28;20048;-69
2021/09/11 07:20:59;;;;;;;38.58;26.50;;;17.70;99.90;;;;;;4997964;28;21048;-69
2021/09/11 07:23:26;;;;;;;33.65;25.42;;;17.80;99.90;;;;;;4999120;28;20129;-69
2021/09/11 07:25:56;;;;;;;32.75;25.02;;;17.80;99.90;;;;;;4997177;28;20038;-69
2021/09/11 07:28:21;;;;;;;33.45;26.08;;;17.90;99.90;;;;;;4987751;28;20033;-69
2021/09/11 07:30:47;;;;;;;30.95;25.30;;;18.00;99.90;;;;;;4998411;28;20112;-69
2021/09/11 07:33:13;;;;;;;36.75;25.33;;;18.00;99.90;;;;;;4999458;28;20113;-69
2021/09/11 07:35:38;;;;;;;34.80;26.33;;;18.00;99.90;;;;;;5001909;28;20038;-68
2021/09/11 07:38:08;;;;;;;33.90;26.27;;;18.10;99.90;;;;;;5001864;28;20070;-69
2021/09/11 07:40:34;;;;;;;36.35;26.80;;;18.10;99.90;;;;;;5001995;28;20100;-69
2021/09/11 07:43:01;;;;;;;36.05;26.77;;;18.10;99.90;;;;;;5001137;28;20479;-69
2021/09/11 07:45:26;;;;;;;40.58;27.30;;;18.10;99.90;;;;;;5005440;28;20030;-69
2021/09/11 07:47:52;;;;;;;35.55;27.48;;;18.10;99.90;;;;;;4995126;28;20046;-69
2021/09/11 07:50:19;;;;;;;35.53;26.35;;;18.10;99.90;;;;;;5000241;28;20752;-69
2021/09/11 07:52:44;;;;;;;36.40;26.45;;;18.10;99.90;;;;;;5001101;28;20046;-69
2021/09/11 07:55:10;;;;;;;31.50;26.55;;;18.10;99.90;;;;;;5002843;28;20049;-69
2021/09/11 07:57:36;;;;;;;37.67;25.95;;;18.10;99.90;;;;;;5004448;28;20057;-69
2021/09/11 08:00:03;;;;;;;35.05;26.08;;;18.10;99.90;;;;;;5003017;28;20474;-69
2021/09/11 08:02:29;;;;;;;33.78;25.92;;;18.00;99.90;;;;;;4998676;28;20047;-69
2021/09/11 08:04:54;;;;;;;28.67;24.98;;;18.10;99.90;;;;;;4996869;28;20038;-69
2021/09/11 08:07:21;;;;;;;33.90;26.75;;;18.10;99.90;;;;;;5000413;28;20052;-68
2021/09/11 08:09:46;;;;;;;31.48;26.23;;;18.10;99.90;;;;;;4994003;28;20177;-68
2021/09/11 08:12:12;;;;;;;35.90;26.23;;;18.10;99.90;;;;;;4994772;28;20117;-68
2021/09/11 08:14:37;;;;;;;34.15;27.00;;;18.10;99.90;;;;;;5001961;28;20050;-68
2021/09/11 08:17:03;;;;;;;32.13;26.88;;;18.10;99.90;;;;;;5004234;28;20042;-69
2021/09/11 08:19:29;;;;;;;31.20;25.83;;;18.10;99.90;;;;;;4997098;28;20081;-68
2021/09/11 08:21:54;;;;;;;33.83;26.98;;;18.10;99.90;;;;;;4999330;28;20042;-68
2021/09/11 08:24:20;;;;;;;40.38;28.90;;;18.10;99.90;;;;;;5001169;28;20058;-68
2021/09/11 08:26:45;;;;;;;35.42;27.60;;;18.10;99.90;;;;;;5001706;28;20458;-69
2021/09/11 08:29:11;;;;;;;36.42;27.48;;;18.10;99.90;;;;;;4996453;28;20038;-68
2021/09/11 08:31:36;;;;;;;35.60;28.15;;;18.10;99.90;;;;;;5000236;28;20123;-68
2021/09/11 08:34:02;;;;;;;34.47;28.33;;;18.10;99.90;;;;;;5001677;28;20107;-68
2021/09/11 08:36:29;;;;;;;35.03;27.77;;;18.10;99.90;;;;;;5000124;28;20065;-68
2021/09/11 08:38:54;;;;;;;34.80;29.23;;;18.10;99.90;;;;;;4994699;28;20034;-68
2021/09/11 08:41:20;;;;;;;34.88;28.27;;;18.10;99.90;;;;;;4996228;28;20768;-68
2021/09/11 08:43:45;;;;;;;41.00;28.67;;;18.20;99.90;;;;;;4999675;28;20790;-68
2021/09/11 08:46:11;;;;;;;41.83;29.17;;;18.20;99.90;;;;;;5004658;28;20056;-68
2021/09/11 08:48:37;;;;;;;39.22;28.45;;;18.20;99.90;;;;;;4999110;28;20042;-68
2021/09/11 08:51:02;;;;;;;35.22;27.27;;;18.30;99.90;;;;;;5004010;28;20046;-68
2021/09/11 08:53:28;;;;;;;38.65;30.02;;;18.30;99.90;;;;;;4999387;28;20081;-68
2021/09/11 08:56:00;;;;;;;36.42;26.60;;;18.30;99.90;;;;;;5000356;28;20050;-68
2021/09/11 08:58:28;;;;;;;35.00;27.52;;;18.30;99.90;;;;;;4984083;28;20045;-68
2021/09/11 09:00:58;;;;;;;31.25;26.55;;;18.30;99.90;;;;;;5000354;28;20536;-68
2021/09/11 09:03:38;;;;;;;32.45;26.95;;;18.30;99.90;;;;;;4999941;28;20052;-68
2021/09/11 09:06:19;;;;;;;30.35;25.30;;;18.40;99.90;;;;;;5003815;28;20099;-70
2021/09/11 09:08:50;;;;;;;33.72;26.08;;;18.50;99.90;;;;;;4992129;28;20085;-69
2021/09/11 09:11:27;;;;;;;30.65;24.42;;;18.50;99.90;;;;;;4997937;28;20060;-68
2021/09/11 09:13:52;;;;;;;30.55;26.40;;;18.50;99.90;;;;;;5001909;28;20038;-68
2021/09/11 09:16:19;;;;;;;33.63;28.13;;;18.50;99.90;;;;;;5001013;28;20077;-70
2021/09/11 09:18:44;;;;;;;34.92;26.67;;;18.50;99.90;;;;;;4996898;28;20099;-69
2021/09/11 09:21:28;;;;;;;29.50;26.20;;;18.50;99.90;;;;;;5002607;28;20046;-68
2021/09/11 09:24:00;;;;;;;30.23;25.17;;;18.60;99.90;;;;;;4996821;28;20491;-68
2021/09/11 09:26:26;;;;;;;34.17;25.67;;;18.60;99.90;;;;;;5000624;28;20495;-70
2021/09/11 09:29:05;;;;;;;32.05;26.10;;;18.70;99.90;;;;;;4999668;28;20057;-69
2021/09/11 09:31:31;;;;;;;29.20;25.90;;;18.70;99.90;;;;;;4994663;28;20177;-68
2021/09/11 09:33:57;;;;;;;28.10;25.02;;;18.80;99.90;;;;;;4999739;28;20045;-68
2021/09/11 09:36:28;;;;;;;27.98;24.98;;;18.90;99.90;;;;;;5003004;28;20044;-68
2021/09/11 09:39:02;;;;;;;27.65;22.80;;;18.90;99.90;;;;;;5014898;28;20038;-68
2021/09/11 09:41:48;;;;;;;27.38;24.42;;;19.00;99.90;;;;;;4985792;28;20053;-68
2021/09/11 09:44:14;;;;;;;;;;;19.10;99.90;;;;;;5001161;28;20037;-68
2021/09/11 09:46:42;;;;;;;27.17;24.23;;;19.20;99.90;;;;;;4999655;28;19948;-68
2021/09/11 09:49:09;;;;;;;28.17;23.75;;;19.30;99.90;;;;;;5001431;28;20034;-68
2021/09/11 09:51:36;;;;;;;27.40;24.27;;;19.30;99.90;;;;;;4996474;28;20050;-68
2021/09/11 09:54:02;;;;;;;28.83;24.00;;;19.20;99.90;;;;;;5001230;28;20430;-68
2021/09/11 09:56:28;;;;;;;28.00;24.08;;;19.30;99.90;;;;;;5004401;28;20053;-68
2021/09/11 09:58:57;;;;;;;26.40;23.63;;;19.20;99.90;;;;;;5003163;28;20388;-68
2021/09/11 10:01:24;;;;;;;30.83;24.48;;;19.20;99.90;;;;;;5003365;28;20045;-68
2021/09/11 10:03:49;;;;;;;27.48;24.50;;;19.20;99.90;;;;;;5006349;28;21550;-68
2021/09/11 10:06:25;;;;;;;33.15;24.85;;;19.20;99.90;;;;;;5003893;28;20086;-69
2021/09/11 10:08:56;;;;;;;27.20;24.38;;;19.20;99.90;;;;;;5004629;28;20085;-69
2021/09/11 10:11:32;;;;;;;33.35;26.88;;;19.30;99.90;;;;;;5002203;28;20534;-69
2021/09/11 10:14:00;;;;;;;27.17;24.33;;;19.40;99.90;;;;;;4990054;28;20035;-69
2021/09/11 10:16:31;;;;;;;30.67;25.13;;;19.60;99.90;;;;;;5004740;28;20408;-69
2021/09/11 10:18:57;;;;;;;28.17;23.67;;;19.70;99.90;;;;;;5003733;28;20044;-69
2021/09/11 10:21:38;;;;;;;24.85;22.17;;;19.80;99.90;;;;;;5001314;28;20133;-68
2021/09/11 10:24:03;;;;;;;26.25;22.83;;;19.80;99.90;;;;;;5004442;28;20492;-68
2021/09/11 10:26:54;;;;;;;27.92;23.88;;;19.80;99.90;;;;;;5004043;28;20057;-68
2021/09/11 10:29:31;;;;;;;26.80;23.50;;;19.80;99.90;;;;;;5001581;28;20038;-68
2021/09/11 10:32:01;;;;;;;27.35;22.60;;;19.80;99.90;;;;;;4990813;28;20048;-69
2021/09/11 10:34:51;;;;;;;24.33;21.23;;;19.90;99.90;;;;;;5002627;28;20721;-69
2021/09/11 10:37:47;;;;;;;24.83;22.05;;;20.00;99.90;;;;;;5002655;28;20042;-69
2021/09/11 10:40:21;;;;;;;24.83;22.05;;;20.10;99.90;;;;;;5002513;28;20054;-69
2021/09/11 10:43:17;;;;;;;23.38;20.92;;;20.30;99.90;;;;;;5002964;28;20037;-69
2021/09/11 10:45:52;;;;;;;23.07;20.60;;;20.40;99.90;;;;;;5002821;28;20132;-69
2021/09/11 10:48:44;;;;;;;23.15;20.05;;;20.40;99.90;;;;;;5003429;28;20492;-69
2021/09/11 10:51:12;;;;;;;25.60;20.60;;;20.50;99.90;;;;;;5003978;28;20034;-69
2021/09/11 10:53:38;;;;;;;23.05;20.25;;;20.50;99.90;;;;;;5005022;28;20033;-68
2021/09/11 10:56:28;;;;;;;22.15;18.85;;;20.60;99.90;;;;;;5006732;28;20396;-69
2021/09/11 10:59:23;;;;;;;23.63;21.05;;;20.60;99.90;;;;;;5003194;28;20050;-69
2021/09/11 11:02:11;;;;;;;22.73;19.63;;;20.70;99.90;;;;;;5001324;28;20041;-69
2021/09/11 11:04:40;;;;;;;23.60;19.48;;;20.80;99.90;;;;;;5006250;28;20073;-68
2021/09/11 11:07:07;;;;;;;22.63;18.67;;;20.90;99.90;;;;;;5006601;28;20152;-68
2021/09/11 11:09:46;;;;;;;22.65;18.95;;;20.90;99.90;;;;;;5008204;28;20042;-69
2021/09/11 11:12:17;;;;;;;23.98;19.27;;;20.90;99.90;;;;;;5011044;28;20084;-67
2021/09/11 11:14:46;;;;;;;23.00;18.80;;;20.90;99.90;;;;;;5010233;28;20050;-68
2021/09/11 11:17:19;;;;;;;20.20;18.10;;;20.80;99.90;;;;;;5008658;28;20045;-69
2021/09/11 11:19:50;;;;;;;25.42;19.50;;;20.80;99.90;;;;;;5007065;28;20049;-69
2021/09/11 11:22:24;;;;;;;21.98;18.02;;;20.80;99.90;;;;;;5006239;28;20076;-69
2021/09/11 11:24:50;;;;;;;20.05;17.85;;;20.70;99.90;;;;;;5009249;28;20037;-69
2021/09/11 11:27:18;;;;;;;20.15;18.10;;;20.60;99.90;;;;;;5005699;28;20042;-68
2021/09/11 11:29:46;;;;;;;24.52;19.20;;;20.50;99.90;;;;;;5008129;28;20084;-69
2021/09/11 11:32:12;;;;;;;25.13;20.70;;;20.40;99.90;;;;;;5007103;28;20107;-69
2021/09/11 11:34:38;;;;;;;23.38;19.55;;;20.30;99.90;;;;;;5005341;28;20042;-68
2021/09/11 11:37:07;;;;;;;25.60;19.55;;;20.30;99.90;;;;;;5004654;28;20030;-68
2021/09/11 11:39:41;;;;;;;23.20;20.70;;;20.30;99.90;;;;;;5004436;28;20484;-68
2021/09/11 11:42:19;;;;;;;29.52;21.17;;;20.40;99.90;;;;;;5007791;28;20038;-68
2021/09/11 11:44:54;;;;;;;22.23;20.10;;;20.50;99.90;;;;;;4991938;28;20046;-69
2021/09/11 11:47:40;;;;;;;22.70;19.58;;;20.50;99.90;;;;;;5007824;28;20046;-69
2021/09/11 11:50:07;;;;;;;;;;;20.60;99.90;;;;;;5005061;28;20123;-69
2021/09/11 11:52:34;;;;;;;23.27;20.38;;;20.60;99.90;;;;;;5008329;28;19926;-69
2021/09/11 11:55:06;;;;;;;27.17;20.52;;;20.60;99.90;;;;;;5007150;28;20526;-69
2021/09/11 11:57:32;;;;;;;21.73;19.42;;;20.60;99.90;;;;;;5006055;28;20080;-69
2021/09/11 12:00:03;;;;;;;23.95;20.08;;;20.60;99.90;;;;;;5005023;28;20973;-69
2021/09/11 12:02:31;;;;;;;23.25;20.27;;;20.60;99.90;;;;;;5005371;28;20060;-69
2021/09/11 12:05:25;;;;;;;22.58;18.65;;;20.60;99.90;;;;;;5005084;28;20488;-69
2021/09/11 12:08:02;;;;;;;28.73;20.20;;;20.60;99.90;;;;;;5007682;28;20123;-69
2021/09/11 12:10:30;;;;;;;21.35;19.02;;;20.60;99.90;;;;;;5008460;28;20045;-69
2021/09/11 12:13:07;;;;;;;24.73;21.45;;;20.50;99.90;;;;;;5006425;28;20141;-69
2021/09/11 12:15:34;;;;;;;25.05;21.50;;;20.50;99.90;;;;;;5004948;28;20041;-69
2021/09/11 12:18:14;;;;;;;23.67;21.02;;;20.50;99.90;;;;;;5005070;28;20050;-69
2021/09/11 12:20:46;;;;;;;26.00;21.98;;;20.50;99.90;;;;;;5004452;28;20120;-69
2021/09/11 12:23:14;;;;;;;24.40;21.80;;;20.40;99.90;;;;;;5005319;28;20046;-69
2021/09/11 12:25:53;;;;;;;23.83;21.13;;;20.40;99.90;;;;;;5007642;28;20050;-69
2021/09/11 12:28:37;;;;;;;24.60;22.20;;;20.40;99.90;;;;;;5005520;28;20046;-69
2021/09/11 12:31:18;;;;;;;23.92;21.48;;;20.50;99.90;;;;;;5008071;28;20041;-69
2021/09/11 12:33:50;;;;;;;25.20;22.50;;;20.50;99.90;;;;;;5005507;28;20081;-69